createdAt,value
2022-08-26T00:00:42.264Z,100010.34
2022-08-26T00:03:45.229Z,100009.19
2022-08-26T00:06:47.618Z,99987.78
2022-08-26T00:09:54.380Z,99995.34
2022-08-26T00:12:57.616Z,99983.00
2022-08-26T00:16:00.279Z,99975.44
2022-08-26T00:19:02.671Z,99993.75
2022-08-26T00:22:05.328Z,99995.41
2022-08-26T00:25:08.404Z,99977.59
2022-08-26T00:28:12.331Z,99987.19
2022-08-26T00:31:16.752Z,99989.72
2022-08-26T00:34:19.700Z,99995.25
2022-08-26T00:37:22.036Z,99996.91
2022-08-26T00:40:31.841Z,99995.41
2022-08-26T00:43:47.174Z,99991.38
2022-08-26T00:46:59.546Z,99989.78
2022-08-26T00:50:07.702Z,99989.03
2022-08-26T00:53:24.136Z,99987.47
2022-08-26T00:56:38.701Z,99998.72
2022-08-26T00:59:42.131Z,99988.69
2022-08-26T01:02:48.546Z,99986.72
2022-08-26T01:05:58.172Z,99988.41
2022-08-26T01:09:00.436Z,99968.16
2022-08-26T01:12:03.745Z,99977.47
2022-08-26T01:15:07.670Z,99976.53
2022-08-26T01:18:13.384Z,99967.16
2022-08-26T01:21:52.959Z,99982.22
2022-08-26T01:24:59.005Z,99976.69
2022-08-26T01:28:05.955Z,99983.94
2022-08-26T01:31:12.126Z,99966.09
2022-08-26T01:34:23.302Z,99964.19
2022-08-26T01:37:32.947Z,99987.31
2022-08-26T01:40:38.576Z,99987.72
2022-08-26T01:43:45.919Z,99980.25
2022-08-26T01:46:51.273Z,99991.47
2022-08-26T01:49:56.756Z,99981.09
2022-08-26T01:53:11.325Z,99958.06
2022-08-26T01:56:15.454Z,99980.44
2022-08-26T01:59:20.534Z,99977.25
2022-08-26T02:02:24.511Z,99977.31
2022-08-26T02:05:27.138Z,99985.44
2022-08-26T02:08:56.757Z,99977.47
2022-08-26T02:12:01.815Z,99976.28
2022-08-26T02:15:08.460Z,99984.34
2022-08-26T02:18:14.261Z,99965.72
2022-08-26T02:21:17.255Z,99968.94
2022-08-26T02:24:27.579Z,99969.75
2022-08-26T02:27:33.662Z,99983.28
2022-08-26T02:30:38.684Z,99962.19
2022-08-26T02:33:43.061Z,99953.88
2022-08-26T02:36:45.913Z,99982.56
2022-08-26T02:39:48.543Z,99961.56
2022-08-26T02:42:53.017Z,99977.94
2022-08-26T02:46:00.054Z,99976.34
2022-08-26T02:49:05.034Z,99973.56
2022-08-26T02:52:08.668Z,99960.94
2022-08-26T02:55:11.527Z,99967.41
2022-08-26T02:58:13.745Z,99985.28
2022-08-26T03:01:25.506Z,99990.09
2022-08-26T03:04:27.831Z,99966.66
2022-08-26T03:07:30.676Z,99976.19
2022-08-26T03:10:32.928Z,99972.38
2022-08-26T03:13:36.317Z,99987.91
2022-08-26T03:16:39.103Z,99969.66
2022-08-26T03:19:41.707Z,99988.75
2022-08-26T03:22:44.830Z,99960.03
2022-08-26T03:25:52.523Z,99968.72
2022-08-26T03:29:14.423Z,99968.72
2022-08-26T03:32:17.151Z,99974.34
2022-08-26T03:35:19.861Z,99971.16
2022-08-26T03:38:27.880Z,99950.84
2022-08-26T03:41:32.619Z,99967.97
2022-08-26T03:44:37.062Z,99949.75
2022-08-26T03:47:45.105Z,99959.28
2022-08-26T03:50:47.607Z,99949.81
2022-08-26T03:53:51.081Z,99951.44
2022-08-26T03:56:53.954Z,99967.34
2022-08-26T03:59:56.184Z,99951.09
2022-08-26T04:02:59.158Z,99950.28
2022-08-26T04:06:01.834Z,99955.09
2022-08-26T04:09:07.865Z,99955.47
2022-08-26T04:12:10.923Z,99962.19
2022-08-26T04:15:16.400Z,99963.00
2022-08-26T04:18:20.745Z,99961.00
2022-08-26T04:21:24.315Z,99966.16
2022-08-26T04:24:27.964Z,99947.84
2022-08-26T04:27:30.285Z,99947.41
2022-08-26T04:30:37.519Z,99957.78
2022-08-26T04:33:41.681Z,99949.75
2022-08-26T04:36:44.692Z,99964.03
2022-08-26T04:39:51.542Z,99964.81
2022-08-26T04:42:54.730Z,99949.66
2022-08-26T04:46:02.947Z,99974.72
2022-08-26T04:49:08.285Z,99967.00
2022-08-26T04:52:10.568Z,99971.78
2022-08-26T04:55:13.095Z,99970.94
2022-08-26T04:58:18.572Z,99971.69
2022-08-26T05:01:22.018Z,99955.31
2022-08-26T05:04:26.309Z,99968.28
2022-08-26T05:07:28.820Z,99963.16
2022-08-26T05:10:31.097Z,99970.97
2022-08-26T05:13:34.848Z,99972.47
2022-08-26T05:16:37.756Z,99956.09
2022-08-26T05:19:43.166Z,99956.84
2022-08-26T05:22:45.410Z,99956.75
2022-08-26T05:25:50.161Z,99971.69
2022-08-26T05:28:54.889Z,99957.34
2022-08-26T05:31:57.925Z,99979.50
2022-08-26T05:35:00.348Z,99961.13
2022-08-26T05:38:12.413Z,99961.78
2022-08-26T05:41:34.283Z,99965.69
2022-08-26T05:44:54.045Z,99975.94
2022-08-26T05:47:58.349Z,99982.94
2022-08-26T05:51:05.195Z,99982.12
2022-08-26T05:54:07.486Z,99975.03
2022-08-26T05:57:13.903Z,99988.84
2022-08-26T06:00:16.393Z,99990.41
2022-08-26T06:03:19.340Z,99996.31
2022-08-26T06:06:33.552Z,99976.22
2022-08-26T06:09:37.631Z,99970.59
2022-08-26T06:12:41.512Z,99997.78
2022-08-26T06:15:49.166Z,99997.12
2022-08-26T06:18:53.394Z,100008.22
2022-08-26T06:21:56.019Z,100002.31
2022-08-26T06:25:16.899Z,100006.91
2022-08-26T06:28:19.463Z,100013.09
2022-08-26T06:31:22.962Z,100009.09
2022-08-26T06:34:30.916Z,100006.81
2022-08-26T06:37:35.766Z,100017.59
2022-08-26T06:40:48.727Z,100015.69
2022-08-26T06:43:51.250Z,100010.37
2022-08-26T06:46:54.098Z,100018.12
2022-08-26T06:49:57.078Z,99998.53
2022-08-26T06:52:59.785Z,99994.63
2022-08-26T06:56:06.223Z,99992.63
2022-08-26T06:59:10.544Z,100003.78
2022-08-26T07:02:13.344Z,100004.06
2022-08-26T07:05:16.437Z,99984.06
2022-08-26T07:08:18.785Z,99987.09
2022-08-26T07:11:21.651Z,99999.22
2022-08-26T07:14:26.635Z,99997.59
2022-08-26T07:17:29.778Z,100007.13
2022-08-26T07:20:32.100Z,100002.66
2022-08-26T07:23:35.675Z,100000.00
2022-08-26T07:26:38.525Z,100001.19
2022-08-26T07:29:43.431Z,100000.81
2022-08-26T07:32:45.957Z,100001.81
2022-08-26T07:35:48.730Z,100007.56
2022-08-26T07:38:52.156Z,100001.53
2022-08-26T07:41:54.613Z,100003.59
2022-08-26T07:44:56.880Z,99994.13
2022-08-26T07:48:00.232Z,99994.09
2022-08-26T07:51:06.349Z,100001.78
2022-08-26T07:54:09.106Z,99992.31
2022-08-26T07:57:11.372Z,99992.16
2022-08-26T08:00:16.223Z,99997.97
2022-08-26T08:03:18.962Z,99999.88
2022-08-26T08:06:27.422Z,99994.34
2022-08-26T08:09:30.746Z,99994.84
2022-08-26T08:12:33.341Z,100002.31
2022-08-26T08:15:37.656Z,99980.88
2022-08-26T08:18:41.290Z,99979.66
2022-08-26T08:21:45.263Z,99989.69
2022-08-26T08:24:49.729Z,99980.06
2022-08-26T08:27:52.608Z,99976.03
2022-08-26T08:30:55.065Z,99992.03
2022-08-26T08:33:57.583Z,99987.44
2022-08-26T08:36:59.740Z,99987.38
2022-08-26T08:40:04.365Z,99983.31
2022-08-26T08:43:11.032Z,99988.47
2022-08-26T08:46:16.820Z,99964.75
2022-08-26T08:49:20.062Z,99982.62
2022-08-26T08:52:35.431Z,99972.50
2022-08-26T08:55:58.374Z,99966.56
2022-08-26T08:59:21.912Z,99966.34
2022-08-26T09:02:38.549Z,99968.22
2022-08-26T09:05:48.710Z,99968.16
2022-08-26T09:08:51.847Z,99979.13
2022-08-26T09:11:56.396Z,99966.50
2022-08-26T09:15:06.313Z,99974.19
2022-08-26T09:18:38.302Z,99963.69
2022-08-26T09:21:41.138Z,99974.38
2022-08-26T09:24:49.101Z,99908.53
2022-08-26T09:27:53.416Z,99959.84
2022-08-26T09:31:24.862Z,99960.69
2022-08-26T09:34:31.174Z,99955.84
2022-08-26T09:40:59.259Z,99952.94
2022-08-26T09:44:17.227Z,99951.12
2022-08-26T09:47:30.249Z,99934.31
2022-08-26T09:50:34.245Z,99934.22
2022-08-26T09:53:49.478Z,99947.09
2022-08-26T09:56:52.766Z,99943.81
2022-08-26T09:59:55.590Z,99939.75
2022-08-26T10:03:00.803Z,99941.75
2022-08-26T10:06:04.903Z,99941.31
2022-08-26T10:09:11.646Z,99923.69
2022-08-26T10:12:19.174Z,99925.03
2022-08-26T10:15:25.345Z,99928.56
2022-08-26T10:18:40.389Z,99931.25
2022-08-26T10:21:56.604Z,99930.22
2022-08-26T10:25:05.054Z,99925.87
2022-08-26T10:28:23.430Z,99924.78
2022-08-26T10:31:47.854Z,99924.56
2022-08-26T10:34:54.049Z,99920.66
2022-08-26T10:38:09.217Z,99913.09
2022-08-26T10:41:20.750Z,99901.53
2022-08-26T10:44:25.394Z,99904.81
2022-08-26T10:47:40.241Z,99904.47
2022-08-26T10:50:47.415Z,99886.75
2022-08-26T10:54:11.894Z,99897.34
2022-08-26T10:57:33.128Z,99890.09
2022-08-26T11:01:10.146Z,99887.34
2022-08-26T11:04:13.201Z,99885.66
2022-08-26T11:07:50.893Z,99891.00
2022-08-26T11:11:00.024Z,99881.69
2022-08-26T11:14:05.037Z,99874.31
2022-08-26T11:17:11.677Z,99861.19
2022-08-26T11:20:23.943Z,99860.09
2022-08-26T11:23:27.219Z,99873.44
2022-08-26T11:26:55.475Z,99869.78
2022-08-26T11:30:06.306Z,99853.25
2022-08-26T11:33:09.269Z,99863.13
2022-08-26T11:36:28.645Z,99844.59
2022-08-26T11:39:54.060Z,99844.12
2022-08-26T11:43:26.067Z,99840.34
2022-08-26T11:46:35.871Z,99847.78
2022-08-26T11:49:38.797Z,99817.66
2022-08-26T11:52:51.528Z,99834.88
2022-08-26T11:55:56.498Z,99821.44
2022-08-26T11:59:03.798Z,99813.56
2022-08-26T12:02:15.410Z,99817.84
2022-08-26T12:05:25.679Z,99816.44
2022-08-26T12:08:34.148Z,99813.00
2022-08-26T12:11:38.570Z,99801.00
2022-08-26T12:14:44.111Z,99803.78
2022-08-26T12:17:51.728Z,99796.50
2022-08-26T12:20:57.879Z,99801.03
2022-08-26T12:24:03.191Z,99782.41
2022-08-26T12:27:40.002Z,99792.44
2022-08-26T12:31:01.025Z,99788.88
2022-08-26T12:34:06.279Z,99777.78
2022-08-26T12:37:20.103Z,99759.25
2022-08-26T12:40:39.539Z,99764.81
2022-08-26T12:43:44.840Z,99767.25
2022-08-26T12:46:50.480Z,99758.00
2022-08-26T12:50:22.103Z,99758.69
2022-08-26T12:53:32.175Z,99759.59
2022-08-26T12:56:40.684Z,99766.22
2022-08-26T12:59:42.959Z,99760.25
2022-08-26T13:02:45.477Z,99746.88
2022-08-26T13:05:47.856Z,99745.53
2022-08-26T13:08:52.898Z,99753.84
2022-08-26T13:11:55.189Z,99751.22
2022-08-26T13:14:58.815Z,99746.72
2022-08-26T13:18:00.963Z,99734.69
2022-08-26T13:21:24.940Z,99718.75
2022-08-26T13:24:41.963Z,99707.47
2022-08-26T13:27:44.532Z,99709.50
2022-08-26T13:30:48.167Z,99705.16
2022-08-26T13:33:51.211Z,99713.22
2022-08-26T13:36:56.343Z,99712.53
2022-08-26T13:39:59.498Z,99718.66
2022-08-26T13:43:02.426Z,99705.41
2022-08-26T13:46:07.246Z,99692.16
2022-08-26T13:49:10.278Z,99704.56
2022-08-26T13:52:13.374Z,99701.50
2022-08-26T13:55:16.265Z,99687.53
2022-08-26T13:58:18.977Z,99696.50
2022-08-26T14:01:21.247Z,99694.56
2022-08-26T14:04:26.967Z,99689.63
2022-08-26T14:07:29.603Z,99686.28
2022-08-26T14:10:32.433Z,99675.97
2022-08-26T14:13:34.745Z,99678.84
2022-08-26T14:16:39.410Z,99682.00
2022-08-26T14:20:04.277Z,99680.75
2022-08-26T14:23:14.633Z,99688.63
2022-08-26T14:26:28.425Z,99695.94
2022-08-26T14:29:33.471Z,99696.22
2022-08-26T14:32:36.437Z,99685.53
2022-08-26T14:35:39.915Z,99695.47
2022-08-26T14:38:50.664Z,99701.97
2022-08-26T14:41:55.679Z,99697.00
2022-08-26T14:45:01.717Z,99693.38
2022-08-26T14:48:04.867Z,99690.19
2022-08-26T14:51:07.221Z,99680.81
2022-08-26T14:54:14.046Z,99679.44
2022-08-26T14:57:17.289Z,99676.03
2022-08-26T15:00:19.880Z,99681.69
2022-08-26T15:03:22.242Z,99673.31
2022-08-26T15:06:25.094Z,99660.03
2022-08-26T15:09:29.253Z,99669.59
2022-08-26T15:12:33.883Z,99661.53
2022-08-26T15:15:37.332Z,99669.47
2022-08-26T15:18:40.351Z,99655.84
2022-08-26T15:21:43.342Z,99669.09
2022-08-26T15:24:45.794Z,99665.66
2022-08-26T15:27:48.700Z,99658.06
2022-08-26T15:30:51.665Z,99643.56
2022-08-26T15:33:54.342Z,99660.41
2022-08-26T15:36:56.754Z,99652.81
2022-08-26T15:39:59.022Z,99662.34
2022-08-26T15:43:18.551Z,99646.81
2022-08-26T15:46:24.787Z,99660.50
2022-08-26T15:49:27.715Z,99637.06
2022-08-26T15:52:30.008Z,99636.91
2022-08-26T15:55:32.612Z,99626.63
2022-08-26T15:58:34.966Z,99631.94
2022-08-26T16:01:38.865Z,99647.91
2022-08-26T16:04:41.954Z,99637.91
2022-08-26T16:07:47.701Z,99630.06
2022-08-26T16:10:51.367Z,99634.44
2022-08-26T16:13:54.077Z,99628.06
2022-08-26T16:16:57.501Z,99610.25
2022-08-26T16:19:59.932Z,99625.84
2022-08-26T16:23:03.827Z,99623.75
2022-08-26T16:26:10.857Z,99631.59
2022-08-26T16:29:16.254Z,99632.50
2022-08-26T16:32:18.536Z,99630.03
2022-08-26T16:35:21.124Z,99631.44
2022-08-26T16:38:23.410Z,99629.28
2022-08-26T16:41:29.856Z,99634.50
2022-08-26T16:44:44.192Z,99618.25
2022-08-26T16:47:48.091Z,99628.06
2022-08-26T16:50:51.594Z,99630.44
2022-08-26T16:53:56.327Z,99630.81
2022-08-26T16:56:58.644Z,99637.69
2022-08-26T17:00:05.076Z,99620.75
2022-08-26T17:03:09.325Z,99621.91
2022-08-26T17:06:13.124Z,99638.31
2022-08-26T17:09:15.995Z,99635.34
2022-08-26T17:12:18.859Z,99625.50
2022-08-26T17:15:23.766Z,99632.28
2022-08-26T17:18:29.241Z,99632.94
2022-08-26T17:21:34.223Z,99611.91
2022-08-26T17:24:37.384Z,99628.28
2022-08-26T17:27:40.849Z,99631.97
2022-08-26T17:30:44.405Z,99637.53
2022-08-26T17:33:53.213Z,99620.59
2022-08-26T17:36:56.141Z,99623.81
2022-08-26T17:39:58.568Z,99638.28
2022-08-26T17:43:01.833Z,99638.62
2022-08-26T17:46:07.451Z,99620.44
2022-08-26T17:49:10.159Z,99619.53
2022-08-26T17:52:12.812Z,99622.88
2022-08-26T17:55:17.886Z,99622.53
2022-08-26T17:58:23.752Z,99612.06
2022-08-26T18:01:28.341Z,99621.53
2022-08-26T18:04:31.801Z,99641.03
2022-08-26T18:07:43.513Z,99638.69
2022-08-26T18:10:47.219Z,99643.28
2022-08-26T18:13:49.464Z,99624.28
2022-08-26T18:16:52.471Z,99629.00
2022-08-26T18:19:54.951Z,99641.75
2022-08-26T18:22:57.504Z,99637.63
2022-08-26T18:25:59.748Z,99643.03
2022-08-26T18:29:02.691Z,99650.06
2022-08-26T18:32:05.083Z,99638.59
2022-08-26T18:35:08.863Z,99642.06
2022-08-26T18:38:14.046Z,99638.28
2022-08-26T18:41:20.602Z,99636.88
2022-08-26T18:44:23.370Z,99646.81
2022-08-26T18:47:25.918Z,99633.72
2022-08-26T18:50:28.743Z,99650.87
2022-08-26T18:53:34.296Z,99632.16
2022-08-26T18:56:38.268Z,99640.78
2022-08-26T18:59:41.047Z,99658.44
2022-08-26T19:02:43.716Z,99644.53
2022-08-26T19:05:55.546Z,99645.16
2022-08-26T19:08:58.292Z,99663.88
2022-08-26T19:12:02.302Z,99653.94
2022-08-26T19:15:05.043Z,99668.44
2022-08-26T19:18:15.139Z,99649.22
2022-08-26T19:21:17.858Z,99652.63
2022-08-26T19:24:21.151Z,99647.59
2022-08-26T19:27:23.432Z,99651.03
2022-08-26T19:30:27.997Z,99671.03
2022-08-26T19:33:33.463Z,99659.47
2022-08-26T19:36:36.556Z,99645.94
2022-08-26T19:39:38.890Z,99662.75
2022-08-26T19:42:42.007Z,99642.44
2022-08-26T19:45:44.815Z,99675.16
2022-08-26T19:48:47.989Z,99671.38
2022-08-26T19:51:53.212Z,99679.06
2022-08-26T19:54:55.956Z,99668.94
2022-08-26T19:57:58.381Z,99663.25
2022-08-26T20:01:02.794Z,99649.53
2022-08-26T20:04:09.906Z,99672.47
2022-08-26T20:07:18.520Z,99694.00
2022-08-26T20:10:24.113Z,99694.97
2022-08-26T20:13:29.236Z,99690.22
2022-08-26T20:16:33.044Z,99692.88
2022-08-26T20:19:54.210Z,99695.34
2022-08-26T20:22:59.277Z,99677.31
2022-08-26T20:26:06.215Z,99697.34
2022-08-26T20:29:15.324Z,99702.19
2022-08-26T20:32:22.031Z,99707.19
2022-08-26T20:35:30.211Z,99641.03
2022-08-26T20:38:32.468Z,99652.50
2022-08-26T20:41:36.787Z,99706.09
2022-08-26T20:44:40.324Z,99695.00
2022-08-26T20:47:52.466Z,99706.81
2022-08-26T20:50:59.741Z,99709.78
2022-08-26T20:54:02.523Z,99679.94
2022-08-26T20:57:07.863Z,99721.81
2022-08-26T21:00:13.206Z,99729.59
2022-08-26T21:03:19.691Z,99702.00
2022-08-26T21:06:23.193Z,99726.56
2022-08-26T21:09:29.747Z,99715.75
2022-08-26T21:12:33.355Z,99741.59
2022-08-26T21:15:35.635Z,99737.75
2022-08-26T21:18:40.809Z,99731.78
2022-08-26T21:21:50.000Z,99713.75
2022-08-26T21:25:04.306Z,99739.22
2022-08-26T21:28:06.656Z,99732.25
2022-08-26T21:31:16.098Z,99723.69
2022-08-26T21:34:22.414Z,99733.84
2022-08-26T21:37:26.374Z,99724.59
2022-08-26T21:40:28.651Z,99715.78
2022-08-26T21:43:35.526Z,99724.59
2022-08-26T21:46:38.288Z,99741.97
2022-08-26T21:49:40.907Z,99717.38
2022-08-26T21:52:46.169Z,99734.75
2022-08-26T21:55:48.892Z,99741.63
2022-08-26T21:58:52.576Z,99728.00
2022-08-26T22:01:56.173Z,99720.78
2022-08-26T22:04:58.717Z,99711.28
2022-08-26T22:08:00.959Z,99735.91
2022-08-26T22:11:06.849Z,99728.91
2022-08-26T22:14:09.799Z,99732.97
2022-08-26T22:17:12.713Z,99717.41
2022-08-26T22:20:16.645Z,99723.72
2022-08-26T22:23:20.836Z,99733.75
2022-08-26T22:26:25.523Z,99725.19
2022-08-26T22:29:28.508Z,99713.88
2022-08-26T22:32:30.709Z,99729.81
2022-08-26T22:35:40.491Z,99716.47
2022-08-26T22:38:52.132Z,99703.81
2022-08-26T22:42:03.924Z,99651.25
2022-08-26T22:45:07.381Z,99705.63
2022-08-26T22:48:12.393Z,99711.97
2022-08-26T22:51:14.708Z,99699.56
2022-08-26T22:54:19.469Z,99696.37
2022-08-26T22:57:23.141Z,99699.75
2022-08-26T23:00:28.981Z,99717.22
2022-08-26T23:03:35.858Z,99710.94
2022-08-26T23:06:41.614Z,99712.63
2022-08-26T23:09:44.023Z,99712.03
2022-08-26T23:12:46.591Z,99712.16
2022-08-26T23:15:48.823Z,99724.31
2022-08-26T23:18:51.369Z,99676.66
2022-08-26T23:21:53.601Z,99690.41
2022-08-26T23:24:56.424Z,99690.41
2022-08-26T23:28:00.485Z,99704.63
2022-08-26T23:31:03.448Z,99697.38
2022-08-26T23:34:24.659Z,99694.00
2022-08-26T23:37:34.938Z,99689.25
2022-08-26T23:40:38.842Z,99687.44
2022-08-26T23:43:41.743Z,99693.06
2022-08-26T23:46:44.010Z,99684.28
2022-08-26T23:49:46.594Z,99682.81
2022-08-26T23:53:08.789Z,99688.19
2022-08-26T23:56:16.457Z,99666.41
2022-08-26T23:59:18.927Z,99675.41
